Time;durP1;ratioP1;P1;durP2;ratioP2;P2;SDS_P1;SDS_P2;PMS_P1;PMS_P2;Temp;Humidity;BMP_temperature;BMP_pressure;BME280_temperature;BME280_humidity;BME280_pressure;Samples;Min_cycle;Max_cycle;Signal;HPM_P1;HPM_P2
2021/07/18 00:00:05;;;;;;;13.80;11.80;;;21.40;99.90;;;;;;5056100;28;20577;-82
2021/07/18 00:02:33;;;;;;;19.17;13.10;;;21.40;99.90;;;;;;5053722;28;20459;-82
2021/07/18 00:05:03;;;;;;;31.63;14.60;;;21.40;39.10;;;;;;5053594;28;20895;-81
2021/07/18 00:07:31;;;;;;;16.13;13.67;;;21.40;99.90;;;;;;5050203;28;20524;-80
2021/07/18 00:10:00;;;;;;;17.57;11.83;;;21.30;96.30;;;;;;5051007;28;21251;-81
2021/07/18 00:12:28;;;;;;;17.27;11.70;;;21.30;1.00;;;;;;5050018;28;20459;-80
2021/07/18 00:14:56;;;;;;;15.37;12.13;;;21.30;1.00;;;;;;5047437;28;20842;-81
2021/07/18 00:17:24;;;;;;;16.87;11.73;;;21.30;23.60;;;;;;5052440;28;20526;-81
2021/07/18 00:19:52;;;;;;;18.20;11.40;;;21.20;99.90;;;;;;5051408;28;20495;-81
2021/07/18 00:22:22;;;;;;;11.53;10.10;;;21.20;1.00;;;;;;5051160;28;20442;-80
2021/07/18 00:24:50;;;;;;;11.77;9.47;;;21.20;99.90;;;;;;5053262;28;20476;-81
2021/07/18 00:27:18;;;;;;;13.73;11.03;;;21.20;1.00;;;;;;5052977;28;20920;-80
2021/07/18 00:29:46;;;;;;;12.40;9.87;;;21.20;1.00;;;;;;5054254;28;20554;-80
2021/07/18 00:32:14;;;;;;;10.13;8.63;;;21.10;99.90;;;;;;5053152;28;21180;-81
2021/07/18 00:34:42;;;;;;;11.00;9.53;;;21.10;99.90;;;;;;5053245;28;20899;-81
2021/07/18 00:37:10;;;;;;;12.83;8.67;;;21.10;99.90;;;;;;5051030;28;20439;-82
2021/07/18 00:39:40;;;;;;;10.20;9.17;;;21.10;99.90;;;;;;5051936;28;20475;-81
2021/07/18 00:42:08;;;;;;;13.00;9.30;;;21.10;99.90;;;;;;5050975;28;20455;-81
2021/07/18 00:44:36;;;;;;;12.50;8.70;;;21.10;74.10;;;;;;5033414;28;20452;-79
2021/07/18 00:47:04;;;;;;;15.03;8.73;;;21.00;1.00;;;;;;5047997;28;20455;-81
2021/07/18 00:49:33;;;;;;;9.80;8.50;;;21.10;1.00;;;;;;5043293;28;20526;-80
2021/07/18 00:52:01;;;;;;;10.53;8.50;;;21.00;1.00;;;;;;5047912;28;20520;-81
2021/07/18 00:54:30;;;;;;;9.27;7.60;;;21.00;99.90;;;;;;5053134;28;20452;-80
2021/07/18 00:57:01;;;;;;;9.60;6.73;;;21.00;99.90;;;;;;5045118;28;20975;-80
2021/07/18 00:59:30;;;;;;;11.17;8.53;;;21.00;99.90;;;;;;5055791;28;20483;-80
2021/07/18 01:01:58;;;;;;;8.43;7.40;;;21.00;99.90;;;;;;5055966;28;20451;-80
2021/07/18 01:04:28;;;;;;;8.60;6.43;;;21.00;9.30;;;;;;5057491;28;20859;-81
2021/07/18 01:06:56;;;;;;;7.27;6.60;;;21.00;1.00;;;;;;5039595;28;20599;-80
2021/07/18 01:09:24;;;;;;;9.60;6.80;;;20.90;1.00;;;;;;5057627;28;20483;-80
2021/07/18 01:11:53;;;;;;;10.37;7.67;;;20.90;1.00;;;;;;5054396;28;20454;-81
2021/07/18 01:14:22;;;;;;;10.00;6.70;;;20.90;99.90;;;;;;5057187;28;20440;-81
2021/07/18 01:16:50;;;;;;;8.20;6.83;;;20.80;1.00;;;;;;5056627;28;20447;-81
2021/07/18 01:19:21;;;;;;;8.73;6.50;;;20.80;99.90;;;;;;5046452;28;20951;-80
2021/07/18 01:21:58;;;;;;;11.00;6.77;;;20.90;99.90;;;;;;5055512;28;20539;-80
2021/07/18 01:24:28;;;;;;;7.77;6.30;;;20.80;87.40;;;;;;5036602;28;20959;-81
2021/07/18 01:27:01;;;;;;;6.27;5.37;;;20.80;99.90;;;;;;5056905;28;20471;-81
2021/07/18 01:29:30;;;;;;;6.30;5.70;;;20.80;1.00;;;;;;5054361;28;20511;-80
2021/07/18 01:31:58;;;;;;;5.60;4.50;;;20.70;1.00;;;;;;5056524;28;20447;-80
2021/07/18 01:34:28;;;;;;;5.27;4.80;;;20.80;1.00;;;;;;5054394;28;20456;-80
2021/07/18 01:36:58;;;;;;;7.23;5.57;;;20.70;99.90;;;;;;5051847;28;21207;-81
2021/07/18 01:39:26;;;;;;;5.20;4.13;;;20.70;99.90;;;;;;5054826;28;20470;-81
2021/07/18 01:41:57;;;;;;;4.93;4.53;;;20.70;99.90;;;;;;5053487;28;20486;-80
2021/07/18 01:44:26;;;;;;;6.00;4.50;;;20.70;59.30;;;;;;5035435;28;20497;-80
2021/07/18 01:46:54;;;;;;;5.60;5.03;;;20.70;1.00;;;;;;5054230;28;21003;-80
2021/07/18 01:49:22;;;;;;;4.50;3.67;;;20.70;1.00;;;;;;5052383;28;20471;-79
2021/07/18 01:51:50;;;;;;;6.47;4.13;;;20.70;1.00;;;;;;5054809;28;20454;-80
2021/07/18 01:54:20;;;;;;;7.13;3.80;;;20.60;1.00;;;;;;5038049;28;20723;-81
2021/07/18 01:56:48;;;;;;;4.30;3.90;;;20.60;1.00;;;;;;5056080;28;20497;-81
2021/07/18 01:59:18;;;;;;;5.53;4.57;;;20.60;1.00;;;;;;5056283;28;20475;-80
2021/07/18 02:01:46;;;;;;;4.67;3.87;;;20.60;1.00;;;;;;5056171;28;20810;-80
2021/07/18 02:04:15;;;;;;;4.80;4.33;;;20.60;1.00;;;;;;5057317;28;20443;-80
2021/07/18 02:06:43;;;;;;;3.57;3.27;;;20.50;1.00;;;;;;5044832;28;20463;-81
2021/07/18 02:09:11;;;;;;;4.80;4.40;;;20.50;1.00;;;;;;5053588;28;20467;-81
2021/07/18 02:11:41;;;;;;;7.77;5.33;;;20.50;1.00;;;;;;5053746;28;20446;-80
2021/07/18 02:14:09;;;;;;;5.00;4.50;;;20.50;1.00;;;;;;5038054;28;20463;-80
2021/07/18 02:16:37;;;;;;;5.23;4.57;;;20.50;1.00;;;;;;5053661;28;20447;-80
2021/07/18 02:19:10;;;;;;;4.90;4.50;;;20.40;1.00;;;;;;5043821;28;21314;-80
2021/07/18 02:21:40;;;;;;;6.20;4.80;;;20.40;1.00;;;;;;5051531;28;20455;-80
2021/07/18 02:24:09;;;;;;;4.80;4.40;;;20.30;1.00;;;;;;5054380;28;21023;-81
2021/07/18 02:26:38;;;;;;;4.77;4.30;;;20.30;1.00;;;;;;5053516;28;20987;-80
2021/07/18 02:29:08;;;;;;;5.70;5.10;;;20.30;1.00;;;;;;5053370;28;20489;-81
2021/07/18 02:31:36;;;;;;;4.63;4.13;;;20.30;1.00;;;;;;5053429;28;20444;-80
2021/07/18 02:34:04;;;;;;;5.10;4.57;;;20.20;1.00;;;;;;5053682;28;20543;-80
2021/07/18 02:36:34;;;;;;;4.27;3.73;;;20.20;1.00;;;;;;5051899;28;20849;-80
2021/07/18 02:39:02;;;;;;;4.10;3.70;;;20.20;1.00;;;;;;5049409;28;20463;-79
2021/07/18 02:41:34;;;;;;;5.00;4.20;;;20.20;1.00;;;;;;5031705;28;20456;-81
2021/07/18 02:44:03;;;;;;;7.93;4.30;;;20.20;1.00;;;;;;5035655;28;20491;-81
2021/07/18 02:46:33;;;;;;;6.33;4.40;;;20.20;1.00;;;;;;5051705;28;20486;-80
2021/07/18 02:49:01;;;;;;;5.93;5.40;;;20.10;1.00;;;;;;5049315;28;20666;-80
2021/07/18 02:51:29;;;;;;;4.10;3.57;;;20.10;1.00;;;;;;5052673;28;20456;-81
2021/07/18 02:53:57;;;;;;;6.23;4.00;;;20.10;1.00;;;;;;5054762;28;20451;-80
2021/07/18 02:56:25;;;;;;;5.53;3.70;;;20.10;1.00;;;;;;5050594;28;20844;-80
2021/07/18 02:58:53;;;;;;;4.10;3.80;;;20.10;1.00;;;;;;5056923;28;21037;-80
2021/07/18 03:01:21;;;;;;;4.97;3.90;;;20.10;1.00;;;;;;5052081;28;20451;-81
2021/07/18 03:03:51;;;;;;;4.70;4.13;;;20.10;1.00;;;;;;5050779;28;20869;-80
2021/07/18 03:06:19;;;;;;;5.30;4.40;;;20.00;1.00;;;;;;5051002;28;20472;-80
2021/07/18 03:08:47;;;;;;;4.80;3.97;;;20.00;1.00;;;;;;5033848;28;22685;-80
2021/07/18 03:11:15;;;;;;;7.20;5.53;;;19.90;1.00;;;;;;5049404;28;20463;-80
2021/07/18 03:13:43;;;;;;;7.13;4.87;;;19.90;1.00;;;;;;5050006;28;20518;-81
2021/07/18 03:16:11;;;;;;;7.83;3.87;;;19.90;1.00;;;;;;5050495;28;20867;-80
2021/07/18 03:18:39;;;;;;;4.70;4.27;;;19.90;1.00;;;;;;5052190;28;20460;-78
2021/07/18 03:21:09;;;;;;;5.37;4.80;;;19.90;1.00;;;;;;5033922;28;20467;-80
2021/07/18 03:23:37;;;;;;;8.23;4.27;;;19.90;1.00;;;;;;5052968;28;20447;-80
2021/07/18 03:26:05;;;;;;;6.13;5.30;;;19.90;1.00;;;;;;5051165;28;20505;-80
2021/07/18 03:28:33;;;;;;;5.47;4.63;;;19.80;1.00;;;;;;5051101;28;20473;-79
2021/07/18 03:31:02;;;;;;;6.10;4.30;;;19.80;1.00;;;;;;5033328;28;20534;-80
2021/07/18 03:33:30;;;;;;;5.67;4.37;;;19.80;1.00;;;;;;5050738;28;20507;-80
2021/07/18 03:35:58;;;;;;;8.13;4.87;;;19.80;1.00;;;;;;5050322;28;20494;-80
2021/07/18 03:38:28;;;;;;;6.17;4.03;;;19.80;1.00;;;;;;5046550;28;20432;-79
2021/07/18 03:40:56;;;;;;;4.23;3.83;;;19.80;1.00;;;;;;5032528;28;20475;-80
2021/07/18 03:43:24;;;;;;;6.20;4.10;;;19.70;1.00;;;;;;5051877;28;20529;-80
2021/07/18 03:45:52;;;;;;;4.73;4.00;;;19.70;1.00;;;;;;5045446;28;20455;-81
2021/07/18 03:48:20;;;;;;;3.80;3.40;;;19.70;1.00;;;;;;5042399;28;21170;-81
2021/07/18 03:50:49;;;;;;;4.00;3.70;;;19.70;1.00;;;;;;5053069;28;21344;-81
2021/07/18 03:53:17;;;;;;;3.57;3.27;;;19.70;1.00;;;;;;5035695;28;20848;-81
2021/07/18 03:55:47;;;;;;;5.77;3.50;;;19.60;1.00;;;;;;5041882;28;20452;-80
2021/07/18 03:58:15;;;;;;;6.33;4.37;;;19.60;1.00;;;;;;5051472;28;20475;-81
2021/07/18 04:00:43;;;;;;;5.60;3.90;;;19.60;1.00;;;;;;5051623;28;20996;-81
2021/07/18 04:03:11;;;;;;;3.73;3.43;;;19.50;1.00;;;;;;5051303;28;20459;-81
2021/07/18 04:05:39;;;;;;;5.20;3.87;;;19.50;1.00;;;;;;5051010;28;20451;-81
2021/07/18 04:08:07;;;;;;;4.40;3.87;;;19.50;1.00;;;;;;5049905;28;20827;-81
2021/07/18 04:10:36;;;;;;;7.50;4.10;;;19.50;1.00;;;;;;5050256;28;20975;-81
2021/07/18 04:13:05;;;;;;;6.77;3.97;;;19.50;1.00;;;;;;5049714;28;20532;-81
2021/07/18 04:15:34;;;;;;;5.00;4.20;;;19.40;1.00;;;;;;5030449;28;20992;-82
2021/07/18 04:18:07;;;;;;;6.43;4.27;;;19.50;1.00;;;;;;5050102;28;20658;-80
2021/07/18 04:20:36;;;;;;;6.77;4.80;;;19.50;1.00;;;;;;5042109;28;20998;-81
2021/07/18 04:23:04;;;;;;;5.27;4.77;;;19.40;1.00;;;;;;5049926;28;20505;-81
2021/07/18 04:25:32;;;;;;;12.23;4.53;;;19.50;1.00;;;;;;5051345;28;20855;-82
2021/07/18 04:28:00;;;;;;;6.53;4.77;;;19.40;1.00;;;;;;5050216;28;20472;-80
2021/07/18 04:30:30;;;;;;;4.93;4.43;;;19.40;1.00;;;;;;5048265;28;20490;-81
2021/07/18 04:32:58;;;;;;;4.30;3.90;;;19.40;1.00;;;;;;5029652;28;20467;-80
2021/07/18 04:35:26;;;;;;;8.43;4.77;;;19.40;1.00;;;;;;5050090;28;20448;-80
2021/07/18 04:37:54;;;;;;;6.37;5.17;;;19.40;1.00;;;;;;5029568;28;20447;-81
2021/07/18 04:40:23;;;;;;;7.63;4.70;;;19.40;1.00;;;;;;5048957;28;20467;-80
2021/07/18 04:42:51;;;;;;;6.80;4.03;;;19.50;1.00;;;;;;5049222;28;20451;-80
2021/07/18 04:45:19;;;;;;;4.40;4.03;;;19.50;1.00;;;;;;5042172;28;20502;-80
2021/07/18 04:47:52;;;;;;;5.20;4.70;;;19.50;1.00;;;;;;5047398;28;20466;-81
2021/07/18 04:50:21;;;;;;;7.63;5.00;;;19.50;1.00;;;;;;5050480;28;20497;-81
2021/07/18 04:52:49;;;;;;;9.37;4.20;;;19.50;1.00;;;;;;5032092;28;20839;-82
2021/07/18 04:55:18;;;;;;;6.63;4.63;;;19.50;1.00;;;;;;5048458;28;20455;-81
2021/07/18 04:57:47;;;;;;;4.30;3.63;;;19.50;1.00;;;;;;5049426;28;20487;-82
2021/07/18 05:00:17;;;;;;;5.83;4.30;;;19.50;1.00;;;;;;5049255;28;20471;-81
2021/07/18 05:02:45;;;;;;;7.27;4.17;;;19.50;1.00;;;;;;5032962;28;20452;-82
2021/07/18 05:05:16;;;;;;;6.30;4.30;;;19.50;1.00;;;;;;5048998;28;20459;-79
2021/07/18 05:07:46;;;;;;;5.27;4.43;;;19.50;1.00;;;;;;5046525;28;20468;-81
2021/07/18 05:10:14;;;;;;;7.57;4.80;;;19.50;1.00;;;;;;5049235;28;20525;-80
2021/07/18 05:12:42;;;;;;;4.33;3.50;;;19.60;1.00;;;;;;5051405;28;20455;-80
2021/07/18 05:15:11;;;;;;;15.13;5.07;;;19.60;1.00;;;;;;5050385;28;20451;-80
2021/07/18 05:17:40;;;;;;;5.10;4.10;;;19.80;1.00;;;;;;5040674;28;20452;-80
2021/07/18 05:20:10;;;;;;;3.87;3.53;;;19.60;1.00;;;;;;5047885;28;20507;-80
2021/07/18 05:22:40;;;;;;;4.57;3.47;;;19.60;1.00;;;;;;5045983;28;20454;-80
2021/07/18 05:25:10;;;;;;;3.87;3.03;;;19.70;1.00;;;;;;5049508;28;20448;-80
2021/07/18 05:27:39;;;;;;;3.57;3.27;;;19.60;1.00;;;;;;5046397;28;20486;-81
2021/07/18 05:30:09;;;;;;;5.97;4.20;;;19.70;1.00;;;;;;5049103;28;20494;-79
2021/07/18 05:32:38;;;;;;;3.83;3.50;;;19.70;1.00;;;;;;5050492;28;20842;-80
2021/07/18 05:35:08;;;;;;;7.53;3.53;;;19.70;1.00;;;;;;5051282;28;20479;-81
2021/07/18 05:37:37;;;;;;;6.07;3.87;;;19.70;1.00;;;;;;5036310;28;20501;-79
2021/07/18 05:40:09;;;;;;;5.37;3.67;;;19.70;99.90;;;;;;5049985;28;20881;-80
2021/07/18 05:42:38;;;;;;;3.40;3.00;;;19.70;99.90;;;;;;5052625;28;20462;-80
2021/07/18 05:45:08;;;;;;;3.17;2.97;;;19.80;99.90;;;;;;5054035;28;20445;-81
2021/07/18 05:47:36;;;;;;;5.43;3.53;;;19.80;99.90;;;;;;5037751;28;20455;-83
2021/07/18 05:50:06;;;;;;;2.90;2.60;;;19.80;99.90;;;;;;5056638;28;20826;-80
2021/07/18 05:52:34;;;;;;;7.00;3.83;;;19.80;99.90;;;;;;5056186;28;20445;-83
2021/07/18 05:55:03;;;;;;;2.90;2.43;;;19.80;99.90;;;;;;5055109;28;20451;-81
2021/07/18 05:57:33;;;;;;;2.47;2.13;;;19.90;99.90;;;;;;5052390;28;21063;-82
2021/07/18 06:00:02;;;;;;;3.73;3.00;;;19.90;99.90;;;;;;5051932;28;20543;-81
2021/07/18 06:02:30;;;;;;;2.73;2.10;;;19.90;99.90;;;;;;5054037;28;20868;-84
2021/07/18 06:04:58;;;;;;;2.00;1.77;;;19.90;99.90;;;;;;5035323;28;20516;-80
2021/07/18 06:07:26;;;;;;;2.77;1.70;;;19.90;99.90;;;;;;5049074;28;20456;-82
2021/07/18 06:09:54;;;;;;;3.13;1.73;;;19.90;99.90;;;;;;5041468;28;20479;-82
2021/07/18 06:12:23;;;;;;;1.70;1.60;;;20.00;99.90;;;;;;5054089;28;20459;-81
2021/07/18 06:14:52;;;;;;;2.27;2.07;;;20.00;99.90;;;;;;5045920;28;20449;-79
2021/07/18 06:17:20;;;;;;;1.90;1.60;;;20.10;99.90;;;;;;5047948;28;20490;-78
2021/07/18 06:19:48;;;;;;;1.50;1.40;;;20.10;99.90;;;;;;5049062;28;20463;-79
2021/07/18 06:22:16;;;;;;;1.70;1.57;;;20.10;99.90;;;;;;5028846;28;20467;-79
2021/07/18 06:24:44;;;;;;;18.47;9.90;;;20.20;63.40;;;;;;5022407;28;20463;-75
2021/07/18 06:27:12;;;;;;;7.60;6.00;;;20.20;55.00;;;;;;5034595;28;20459;-78
2021/07/18 06:29:40;;;;;;;4.30;2.10;;;20.20;90.10;;;;;;5041217;28;20541;-78
2021/07/18 06:32:10;;;;;;;3.17;2.23;;;20.30;43.30;;;;;;5052340;28;20452;-79
2021/07/18 06:34:38;;;;;;;2.20;1.20;;;20.30;18.60;;;;;;5046972;28;20546;-79
2021/07/18 06:37:06;;;;;;;3.37;1.70;;;20.30;5.60;;;;;;5053252;28;20456;-79
2021/07/18 06:39:35;;;;;;;3.27;1.77;;;20.30;1.90;;;;;;5054397;28;20460;-78
2021/07/18 06:42:03;;;;;;;2.53;1.80;;;20.40;1.00;;;;;;5053044;28;20504;-79
2021/07/18 06:44:32;;;;;;;2.73;1.43;;;20.40;1.00;;;;;;5052924;28;20811;-81
2021/07/18 06:47:00;;;;;;;1.70;1.40;;;20.40;1.00;;;;;;5051881;28;20460;-80
2021/07/18 06:49:30;;;;;;;3.60;1.80;;;20.40;1.00;;;;;;5039944;28;20477;-78
2021/07/18 06:51:58;;;;;;;2.87;1.30;;;20.50;1.00;;;;;;5029636;28;20521;-79
2021/07/18 06:54:27;;;;;;;1.70;1.43;;;20.60;1.00;;;;;;5035026;28;20466;-79
2021/07/18 06:56:55;;;;;;;3.03;1.70;;;20.60;1.00;;;;;;5049600;28;20455;-79
2021/07/18 06:59:23;;;;;;;1.77;1.30;;;20.70;1.00;;;;;;5043181;28;20513;-80
2021/07/18 07:01:51;;;;;;;6.97;2.37;;;20.90;1.00;;;;;;5052190;28;20498;-81
2021/07/18 07:04:19;;;;;;;6.03;1.93;;;21.10;1.00;;;;;;5042096;28;20586;-80
2021/07/18 07:06:49;;;;;;;2.83;1.70;;;21.20;1.00;;;;;;5050699;28;20448;-79
2021/07/18 07:09:17;;;;;;;2.50;1.87;;;21.40;1.00;;;;;;5034549;28;20475;-81
2021/07/18 07:11:45;;;;;;;2.20;1.50;;;21.50;1.00;;;;;;5052854;28;20452;-79
2021/07/18 07:14:13;;;;;;;5.40;1.40;;;21.70;1.00;;;;;;5047363;28;20515;-80
2021/07/18 07:16:41;;;;;;;6.50;1.60;;;21.80;1.00;;;;;;5050693;28;20451;-81
2021/07/18 07:19:10;;;;;;;1.83;1.50;;;21.80;1.00;;;;;;5047881;28;20827;-80
2021/07/18 07:21:38;;;;;;;3.00;1.53;;;21.90;1.00;;;;;;5048502;28;20459;-79
2021/07/18 07:24:08;;;;;;;3.60;1.40;;;22.00;1.00;;;;;;5051475;28;20869;-80
2021/07/18 07:26:36;;;;;;;5.43;3.57;;;22.10;1.00;;;;;;5043069;28;20441;-80
2021/07/18 07:29:05;;;;;;;7.47;2.70;;;22.10;1.00;;;;;;5030443;28;21027;-80
2021/07/18 07:31:33;;;;;;;2.47;1.77;;;22.10;1.00;;;;;;5042156;28;20465;-81
2021/07/18 07:34:01;;;;;;;3.67;1.97;;;22.10;1.00;;;;;;5041398;28;20463;-81
2021/07/18 07:36:30;;;;;;;1.43;1.30;;;22.20;1.00;;;;;;5047852;28;20446;-80
2021/07/18 07:38:58;;;;;;;1.70;1.60;;;22.20;1.00;;;;;;5055032;28;20497;-80
2021/07/18 07:41:27;;;;;;;1.93;1.57;;;22.20;1.00;;;;;;5050357;28;20454;-81
2021/07/18 07:43:57;;;;;;;2.67;1.70;;;22.20;1.00;;;;;;5046138;28;20496;-79
2021/07/18 07:46:26;;;;;;;2.97;1.53;;;22.20;1.00;;;;;;5044804;28;20524;-79
2021/07/18 07:48:54;;;;;;;2.43;1.60;;;22.30;1.00;;;;;;5045968;28;20481;-81
2021/07/18 07:51:22;;;;;;;2.90;1.10;;;22.30;1.00;;;;;;5028673;28;22215;-80
2021/07/18 07:53:51;;;;;;;2.63;1.60;;;22.30;1.00;;;;;;5048004;28;20507;-81
2021/07/18 07:56:20;;;;;;;2.90;1.73;;;22.30;1.00;;;;;;5049047;28;20488;-80
2021/07/18 07:58:49;;;;;;;2.53;1.40;;;22.30;1.00;;;;;;5056228;28;20442;-80
2021/07/18 08:01:17;;;;;;;1.90;1.53;;;22.40;1.00;;;;;;5045463;28;20442;-81
2021/07/18 08:03:45;;;;;;;1.80;1.53;;;22.40;1.00;;;;;;5052613;28;20463;-80
2021/07/18 08:06:14;;;;;;;2.67;1.50;;;22.40;1.00;;;;;;5033251;28;20973;-82
2021/07/18 08:08:42;;;;;;;4.83;1.50;;;22.40;1.00;;;;;;5048236;28;20500;-79
2021/07/18 08:11:10;;;;;;;7.33;1.90;;;22.40;1.00;;;;;;5048793;28;20530;-80
2021/07/18 08:13:39;;;;;;;1.43;1.33;;;22.50;1.00;;;;;;5049562;28;20571;-79
2021/07/18 08:16:09;;;;;;;2.60;2.00;;;22.50;1.00;;;;;;5044603;28;20464;-81
2021/07/18 08:18:37;;;;;;;3.50;1.90;;;22.60;1.00;;;;;;5043727;28;20471;-81
2021/07/18 08:21:06;;;;;;;2.40;1.57;;;22.60;1.00;;;;;;5022715;28;21075;-78
2021/07/18 08:23:34;;;;;;;2.70;1.67;;;22.60;1.00;;;;;;5024905;28;20545;-79
2021/07/18 08:26:02;;;;;;;1.80;1.37;;;22.60;1.00;;;;;;5039809;28;20442;-79
2021/07/18 08:28:31;;;;;;;3.43;1.67;;;22.60;1.00;;;;;;5045494;28;20454;-78
2021/07/18 08:30:59;;;;;;;1.60;1.37;;;22.70;1.00;;;;;;5043728;28;20483;-80
2021/07/18 08:33:28;;;;;;;2.10;1.67;;;22.70;1.00;;;;;;5040161;28;20455;-80
2021/07/18 08:35:57;;;;;;;3.37;2.13;;;22.70;1.00;;;;;;5044964;28;20473;-79
2021/07/18 08:38:25;;;;;;;1.90;1.43;;;22.70;1.00;;;;;;5045174;28;20508;-79
2021/07/18 08:40:55;;;;;;;2.37;1.53;;;22.70;1.00;;;;;;5024574;28;20466;-79
2021/07/18 08:43:44;;;;;;;2.53;1.80;;;22.80;1.00;;;;;;5023046;28;20965;-78
2021/07/18 08:46:14;;;;;;;2.70;1.60;;;22.90;1.00;;;;;;5043077;28;20492;-81
2021/07/18 08:48:44;;;;;;;2.77;1.77;;;22.90;1.00;;;;;;5026809;28;20573;-79
2021/07/18 08:51:13;;;;;;;4.40;1.80;;;22.90;1.00;;;;;;5042611;28;20588;-81
2021/07/18 08:53:41;;;;;;;2.50;1.70;;;22.90;1.00;;;;;;5041921;28;20512;-81
2021/07/18 08:56:10;;;;;;;3.23;1.70;;;23.00;1.00;;;;;;5024179;28;20509;-79
2021/07/18 08:58:40;;;;;;;1.97;1.70;;;23.00;1.00;;;;;;5019190;28;20521;-80
2021/07/18 09:01:08;;;;;;;3.30;2.20;;;23.00;1.00;;;;;;5039390;28;20494;-80
2021/07/18 09:03:36;;;;;;;6.50;2.07;;;23.00;1.00;;;;;;5040508;28;20561;-80
2021/07/18 09:06:10;;;;;;;2.70;1.83;;;23.00;1.00;;;;;;5026214;28;20505;-81
2021/07/18 09:08:43;;;;;;;120.07;44.37;;;23.00;1.00;;;;;;5046657;28;20461;-82
2021/07/18 09:11:18;;;;;;;6.83;3.10;;;23.20;1.00;;;;;;5043281;28;20491;-81
2021/07/18 09:14:01;;;;;;;5.27;2.53;;;23.10;1.00;;;;;;5047293;28;20513;-79
2021/07/18 09:16:32;;;;;;;6.23;2.03;;;23.20;1.00;;;;;;5048125;28;20466;-81
2021/07/18 09:19:20;;;;;;;5.07;1.40;;;23.20;1.00;;;;;;5050886;28;20962;-79
2021/07/18 09:22:11;;;;;;;5.07;1.83;;;23.20;1.00;;;;;;5048832;28;20459;-80
2021/07/18 09:24:41;;;;;;;3.43;1.80;;;23.30;1.00;;;;;;5056120;28;20505;-80
2021/07/18 09:27:12;;;;;;;2.00;1.90;;;23.30;1.00;;;;;;5037168;28;20451;-81
2021/07/18 09:29:42;;;;;;;6.33;1.97;;;23.30;1.00;;;;;;5054812;28;20500;-80
2021/07/18 09:32:13;;;;;;;2.90;1.77;;;23.40;1.00;;;;;;5034019;28;20458;-81
2021/07/18 09:34:43;;;;;;;1.97;1.70;;;23.40;1.00;;;;;;5054482;28;20439;-81
2021/07/18 09:37:15;;;;;;;2.90;1.97;;;23.40;1.00;;;;;;5054914;28;20492;-81
2021/07/18 09:39:52;;;;;;;2.03;1.83;;;23.50;1.00;;;;;;5055802;28;20979;-81
2021/07/18 09:42:33;;;;;;;2.50;1.70;;;23.60;1.00;;;;;;5033476;28;20471;-81
2021/07/18 09:45:02;;;;;;;2.10;1.63;;;23.60;1.00;;;;;;5034971;28;20437;-80
2021/07/18 09:47:31;;;;;;;2.60;1.40;;;23.60;1.00;;;;;;5036095;28;20436;-81
2021/07/18 09:49:59;;;;;;;2.77;1.60;;;23.70;1.00;;;;;;5054657;28;20486;-81
2021/07/18 09:52:29;;;;;;;4.47;1.60;;;23.70;1.00;;;;;;5055283;28;20443;-81
2021/07/18 09:54:59;;;;;;;2.63;1.77;;;23.70;1.00;;;;;;5036644;28;20457;-81
2021/07/18 09:57:32;;;;;;;2.47;2.00;;;23.70;1.00;;;;;;5052589;28;20963;-80
2021/07/18 10:00:01;;;;;;;2.40;1.50;;;23.80;1.00;;;;;;5053817;28;20471;-81
2021/07/18 10:02:32;;;;;;;2.33;1.93;;;23.80;1.00;;;;;;5054041;28;20473;-80
2021/07/18 10:05:01;;;;;;;3.43;1.60;;;23.90;1.00;;;;;;5054215;28;20427;-82
2021/07/18 10:07:33;;;;;;;1.90;1.30;;;24.00;1.00;;;;;;5036982;28;20967;-81
2021/07/18 10:10:04;;;;;;;1.80;1.60;;;23.90;1.00;;;;;;5053874;28;20846;-80
2021/07/18 10:12:33;;;;;;;3.90;1.43;;;23.90;1.00;;;;;;5053304;28;20466;-81
2021/07/18 10:15:02;;;;;;;2.10;1.40;;;24.00;1.00;;;;;;5052864;28;20466;-81
2021/07/18 10:17:30;;;;;;;3.53;1.37;;;24.10;1.00;;;;;;5053299;28;20817;-81
2021/07/18 10:19:59;;;;;;;2.60;1.77;;;24.10;1.00;;;;;;5054040;28;20475;-81
2021/07/18 10:22:28;;;;;;;2.33;1.60;;;24.10;1.00;;;;;;5054265;28;20455;-83
2021/07/18 10:24:58;;;;;;;1.70;1.40;;;24.10;1.00;;;;;;5052372;28;20451;-81
2021/07/18 10:27:26;;;;;;;4.17;1.70;;;24.20;1.00;;;;;;5052321;28;20491;-80
2021/07/18 10:29:55;;;;;;;2.30;1.53;;;24.30;1.00;;;;;;5052165;28;20471;-80
2021/07/18 10:32:25;;;;;;;2.00;1.80;;;24.30;1.00;;;;;;5053974;28;20537;-81
2021/07/18 10:34:55;;;;;;;2.63;2.43;;;24.20;1.00;;;;;;5035394;28;20443;-81
2021/07/18 10:37:24;;;;;;;3.47;1.97;;;24.30;1.00;;;;;;5035793;28;20455;-82
2021/07/18 10:39:55;;;;;;;3.43;1.90;;;24.30;1.00;;;;;;5043996;28;20618;-81
2021/07/18 10:42:43;;;;;;;3.23;1.60;;;24.40;1.00;;;;;;5054387;28;20454;-80
2021/07/18 10:45:20;;;;;;;3.70;1.90;;;24.40;1.00;;;;;;5026302;28;20448;-80
2021/07/18 10:48:00;;;;;;;2.33;1.87;;;24.40;1.00;;;;;;5053576;28;20436;-81
2021/07/18 10:50:50;;;;;;;4.43;1.90;;;24.50;1.00;;;;;;5053563;28;22360;-81
2021/07/18 10:53:21;;;;;;;3.43;1.83;;;24.50;1.00;;;;;;5053570;28;20432;-81
2021/07/18 10:55:51;;;;;;;3.17;1.50;;;24.60;1.00;;;;;;5035071;28;20449;-80
2021/07/18 10:58:51;;;;;;;2.43;1.80;;;24.60;1.00;;;;;;5053390;28;20427;-81
2021/07/18 11:01:41;;;;;;;6.37;2.13;;;24.70;1.00;;;;;;5053147;28;20459;-82
2021/07/18 11:04:43;;;;;;;3.53;1.87;;;24.70;1.00;;;;;;5035673;28;20456;-80
2021/07/18 11:07:30;;;;;;;2.80;2.40;;;24.70;1.00;;;;;;5049842;28;20489;-80
2021/07/18 11:10:01;;;;;;;4.23;1.70;;;24.80;1.00;;;;;;5036423;28;20471;-81
2021/07/18 11:12:31;;;;;;;4.63;2.30;;;24.80;1.00;;;;;;5073543;28;20935;-81
2021/07/18 11:15:32;;;;;;;3.60;1.67;;;24.80;1.00;;;;;;5054869;28;20450;-81
2021/07/18 11:18:05;;;;;;;2.40;1.70;;;24.80;1.00;;;;;;5070739;28;20512;-80
2021/07/18 11:20:55;;;;;;;2.93;1.80;;;24.80;1.00;;;;;;5053120;28;20468;-81
2021/07/18 11:23:29;;;;;;;4.00;1.77;;;24.80;1.00;;;;;;5031693;28;21018;-81
2021/07/18 11:26:07;;;;;;;4.30;1.90;;;24.90;99.90;;;;;;5052126;28;20464;-81
2021/07/18 11:28:51;;;;;;;2.53;1.40;;;24.90;99.90;;;;;;5050100;28;20439;-81
2021/07/18 11:31:45;;;;;;;6.00;1.97;;;25.00;99.90;;;;;;5051979;28;20479;-81
2021/07/18 11:34:18;;;;;;;2.77;1.70;;;25.00;99.90;;;;;;5051386;28;20460;-81
2021/07/18 11:37:04;;;;;;;1.77;1.40;;;25.00;99.90;;;;;;5034632;28;20436;-81
2021/07/18 11:39:35;;;;;;;1.60;1.30;;;25.00;99.90;;;;;;5050171;28;20471;-81
2021/07/18 11:42:06;;;;;;;5.73;1.93;;;25.00;99.90;;;;;;5051758;28;20729;-80
2021/07/18 11:44:35;;;;;;;1.33;1.23;;;25.00;99.90;;;;;;5052178;28;20455;-82
2021/07/18 11:47:10;;;;;;;2.10;1.40;;;25.10;99.90;;;;;;5050646;28;20440;-80
2021/07/18 11:49:42;;;;;;;2.53;1.93;;;25.20;99.90;;;;;;5034103;28;20515;-80
2021/07/18 11:52:10;;;;;;;1.97;1.50;;;25.20;99.90;;;;;;5050814;28;20994;-81
2021/07/18 11:54:39;;;;;;;2.90;1.90;;;25.20;99.90;;;;;;5052440;28;20780;-81
2021/07/18 11:57:10;;;;;;;1.50;1.40;;;25.20;99.90;;;;;;5051335;28;20444;-81
2021/07/18 11:59:40;;;;;;;3.50;1.50;;;25.20;99.90;;;;;;5050904;28;20471;-81
2021/07/18 12:02:11;;;;;;;2.40;1.37;;;25.30;99.90;;;;;;5051882;28;20447;-81
2021/07/18 12:04:41;;;;;;;2.20;1.73;;;25.30;99.90;;;;;;5051689;28;20459;-81
2021/07/18 12:07:11;;;;;;;2.40;1.80;;;25.30;99.90;;;;;;5052083;28;20501;-81
2021/07/18 12:09:42;;;;;;;2.47;1.80;;;25.30;99.90;;;;;;5033171;28;20467;-80
2021/07/18 12:12:12;;;;;;;3.90;2.17;;;25.30;99.90;;;;;;5051252;28;20490;-80
2021/07/18 12:14:41;;;;;;;1.80;1.70;;;25.40;99.90;;;;;;5052251;28;20853;-80
2021/07/18 12:17:13;;;;;;;3.30;2.03;;;25.40;99.90;;;;;;5067419;28;20927;-81
2021/07/18 12:19:42;;;;;;;2.50;1.90;;;25.40;99.90;;;;;;5071151;28;20818;-81
2021/07/18 12:22:12;;;;;;;3.97;2.27;;;25.50;99.90;;;;;;5013783;28;20444;-80
2021/07/18 12:24:43;;;;;;;3.13;1.80;;;25.50;99.90;;;;;;5038380;28;20939;-82
2021/07/18 12:27:17;;;;;;;3.83;2.13;;;25.50;99.90;;;;;;5049594;28;20444;-80
2021/07/18 12:29:48;;;;;;;2.33;2.13;;;25.50;99.90;;;;;;5051762;28;20532;-81
2021/07/18 12:32:19;;;;;;;7.87;4.83;;;25.50;99.90;;;;;;5051822;28;20990;-80
2021/07/18 12:34:49;;;;;;;4.70;2.67;;;25.50;99.90;;;;;;5051494;28;20485;-82
2021/07/18 12:37:19;;;;;;;4.87;3.23;;;25.50;99.90;;;;;;5033192;28;20455;-81
2021/07/18 12:39:50;;;;;;;4.23;3.83;;;25.50;99.90;;;;;;5044671;28;20468;-81
2021/07/18 12:42:24;;;;;;;3.47;3.27;;;25.60;99.90;;;;;;5040595;28;20455;-80
2021/07/18 12:44:54;;;;;;;4.53;3.60;;;25.60;99.90;;;;;;5051717;28;20470;-81
2021/07/18 12:47:30;;;;;;;5.10;4.60;;;25.60;99.90;;;;;;5051131;28;21020;-80
2021/07/18 12:50:17;;;;;;;4.90;3.63;;;25.60;99.90;;;;;;5051315;28;20463;-81
2021/07/18 12:52:59;;;;;;;4.63;4.23;;;25.60;99.90;;;;;;5050543;28;20471;-77
2021/07/18 12:55:29;;;;;;;4.87;4.13;;;25.70;99.90;;;;;;5050554;28;20801;-80
2021/07/18 12:57:58;;;;;;;7.87;6.03;;;25.70;99.90;;;;;;5050004;28;20494;-80
2021/07/18 13:00:28;;;;;;;7.03;5.97;;;25.80;99.90;;;;;;5050826;28;20463;-82
2021/07/18 13:03:15;;;;;;;9.83;7.93;;;25.80;99.90;;;;;;5051213;28;20451;-82
2021/07/18 13:05:45;;;;;;;10.27;7.93;;;25.80;99.90;;;;;;5050867;28;20981;-80
2021/07/18 13:08:28;;;;;;;8.27;7.03;;;25.90;99.90;;;;;;5033637;28;20451;-82